Terminal Aerodrome Forecast
Issued by NWS Chicago, IL

Home | Current Version | Previous Version | Graphics & Text | Print | Product List | Glossary On
Versions: 1 2 3 4 5 6 7 8 9 10 11 12 13 14 15 16 17 18 19 20 21 22 23 24 25 26 27 28 29
498
FTUS43 KLOT 220713 AAB
TAFRFD
TAF AMD
KRFD 220713Z 2207/2306 VRB02KT 1/4SM FG VV002
      TEMPO 2214/2216 3SM BR BCFG
     FM221600 21010KT P6SM SKC
     FM221800 20015G25KT P6SM SKC
     FM222300 23010KT P6SM SKC=

USA.gov is the U.S. government's official web portal to all federal, state and local government web resources and services.